Terminal Aerodrome Forecast
Issued by NWS

Home | Current Version | Previous Version | Text Only | Print | Product List | Glossary On
Versions: 1 2 3 4 5 6 7 8 9 10 11 12 13 14 15 16
020
FTUS46 KLOX 281843 AAA
TAFPRB
TAF AMD
KPRB 281843Z 2819/2918 VRB03KT 6SM FU FEW025
     FM282200 21015KT P6SM SKC
     FM290400 28007KT P6SM SKC
     FM290700 VRB03KT P6SM SKC=

USA.gov is the U.S. government's official web portal to all federal, state and local government web resources and services.